sensor_id;sensor_type;location;lat;lon;timestamp;pressure;altitude;pressure_sealevel;temperature;humidity
29935;BME280;19905;53.370;-6.314;2023-08-12T00:01:01;100241.97;;;16.80;100.00
29935;BME280;19905;53.370;-6.314;2023-08-12T00:03:30;100233.47;;;16.76;100.00
29935;BME280;19905;53.370;-6.314;2023-08-12T00:05:59;100227.66;;;16.73;100.00
29935;BME280;19905;53.370;-6.314;2023-08-12T00:08:29;100222.66;;;16.78;100.00
29935;BME280;19905;53.370;-6.314;2023-08-12T00:10:59;100233.31;;;16.78;100.00
29935;BME280;19905;53.370;-6.314;2023-08-12T00:13:28;100205.00;;;16.77;100.00
29935;BME280;19905;53.370;-6.314;2023-08-12T00:15:56;100220.00;;;16.78;100.00
29935;BME280;19905;53.370;-6.314;2023-08-12T00:18:25;100212.66;;;16.80;100.00
29935;BME280;19905;53.370;-6.314;2023-08-12T00:20:53;100206.81;;;16.76;100.00
29935;BME280;19905;53.370;-6.314;2023-08-12T00:23:22;100208.66;;;16.76;100.00
29935;BME280;19905;53.370;-6.314;2023-08-12T00:25:52;100210.66;;;16.82;100.00
29935;BME280;19905;53.370;-6.314;2023-08-12T00:28:22;100200.19;;;16.72;100.00
29935;BME280;19905;53.370;-6.314;2023-08-12T00:30:51;100195.13;;;16.86;100.00
29935;BME280;19905;53.370;-6.314;2023-08-12T00:33:20;100206.66;;;16.86;100.00
29935;BME280;19905;53.370;-6.314;2023-08-12T00:35:48;100199.47;;;16.79;100.00
29935;BME280;19905;53.370;-6.314;2023-08-12T00:38:17;100197.00;;;16.77;100.00
29935;BME280;19905;53.370;-6.314;2023-08-12T00:40:45;100211.78;;;16.71;100.00
29935;BME280;19905;53.370;-6.314;2023-08-12T00:43:14;100199.31;;;16.72;100.00
29935;BME280;19905;53.370;-6.314;2023-08-12T00:45:45;100193.31;;;16.70;100.00
29935;BME280;19905;53.370;-6.314;2023-08-12T00:48:14;100194.34;;;16.77;100.00
29935;BME280;19905;53.370;-6.314;2023-08-12T00:50:45;100194.97;;;16.71;100.00
29935;BME280;19905;53.370;-6.314;2023-08-12T00:53:14;100187.78;;;16.71;100.00
29935;BME280;19905;53.370;-6.314;2023-08-12T00:55:44;100185.81;;;16.65;100.00
29935;BME280;19905;53.370;-6.314;2023-08-12T00:58:13;100169.47;;;16.68;100.00
29935;BME280;19905;53.370;-6.314;2023-08-12T01:00:42;100188.47;;;16.65;100.00
29935;BME280;19905;53.370;-6.314;2023-08-12T01:03:12;100188.16;;;16.68;100.00
29935;BME280;19905;53.370;-6.314;2023-08-12T01:05:42;100162.63;;;16.66;100.00
29935;BME280;19905;53.370;-6.314;2023-08-12T01:08:11;100182.63;;;16.62;100.00
29935;BME280;19905;53.370;-6.314;2023-08-12T01:10:44;100182.50;;;16.63;100.00
29935;BME280;19905;53.370;-6.314;2023-08-12T01:13:21;100175.78;;;16.67;100.00
29935;BME280;19905;53.370;-6.314;2023-08-12T01:15:55;100171.97;;;16.70;100.00
29935;BME280;19905;53.370;-6.314;2023-08-12T01:18:29;100166.31;;;16.65;100.00
29935;BME280;19905;53.370;-6.314;2023-08-12T01:20:58;100164.47;;;16.65;100.00
29935;BME280;19905;53.370;-6.314;2023-08-12T01:23:32;100153.63;;;16.67;100.00
29935;BME280;19905;53.370;-6.314;2023-08-12T01:26:01;100158.00;;;16.60;100.00
29935;BME280;19905;53.370;-6.314;2023-08-12T01:28:30;100149.81;;;16.61;100.00
29935;BME280;19905;53.370;-6.314;2023-08-12T01:31:06;100155.31;;;16.60;100.00
29935;BME280;19905;53.370;-6.314;2023-08-12T01:33:46;100158.13;;;16.58;100.00
29935;BME280;19905;53.370;-6.314;2023-08-12T01:36:20;100161.66;;;16.59;100.00
29935;BME280;19905;53.370;-6.314;2023-08-12T01:38:51;100137.81;;;16.65;100.00
29935;BME280;19905;53.370;-6.314;2023-08-12T01:41:23;100145.81;;;16.65;100.00
29935;BME280;19905;53.370;-6.314;2023-08-12T01:43:52;100153.28;;;16.70;100.00
29935;BME280;19905;53.370;-6.314;2023-08-12T01:46:21;100133.31;;;16.58;100.00
29935;BME280;19905;53.370;-6.314;2023-08-12T01:48:50;100138.97;;;16.63;100.00
29935;BME280;19905;53.370;-6.314;2023-08-12T01:51:19;100136.28;;;16.63;100.00
29935;BME280;19905;53.370;-6.314;2023-08-12T01:53:49;100139.47;;;16.66;100.00
29935;BME280;19905;53.370;-6.314;2023-08-12T01:56:18;100118.31;;;16.65;100.00
29935;BME280;19905;53.370;-6.314;2023-08-12T01:58:46;100138.13;;;16.62;100.00
29935;BME280;19905;53.370;-6.314;2023-08-12T02:01:15;100116.34;;;16.59;100.00
29935;BME280;19905;53.370;-6.314;2023-08-12T02:03:44;100129.81;;;16.57;100.00
29935;BME280;19905;53.370;-6.314;2023-08-12T02:06:13;100127.66;;;16.61;100.00
29935;BME280;19905;53.370;-6.314;2023-08-12T02:08:41;100121.31;;;16.62;100.00
29935;BME280;19905;53.370;-6.314;2023-08-12T02:11:11;100114.13;;;16.62;100.00
29935;BME280;19905;53.370;-6.314;2023-08-12T02:13:40;100113.50;;;16.60;100.00
29935;BME280;19905;53.370;-6.314;2023-08-12T02:16:08;100107.16;;;16.61;100.00
29935;BME280;19905;53.370;-6.314;2023-08-12T02:18:37;100100.34;;;16.59;100.00
29935;BME280;19905;53.370;-6.314;2023-08-12T02:21:06;100095.31;;;16.64;100.00
29935;BME280;19905;53.370;-6.314;2023-08-12T02:23:35;100095.84;;;16.59;100.00
29935;BME280;19905;53.370;-6.314;2023-08-12T02:26:03;100089.66;;;16.59;100.00
29935;BME280;19905;53.370;-6.314;2023-08-12T02:28:34;100092.66;;;16.64;100.00
29935;BME280;19905;53.370;-6.314;2023-08-12T02:31:02;100094.16;;;16.58;100.00
29935;BME280;19905;53.370;-6.314;2023-08-12T02:33:33;100109.47;;;16.64;100.00
29935;BME280;19905;53.370;-6.314;2023-08-12T02:36:02;100103.34;;;16.56;100.00
29935;BME280;19905;53.370;-6.314;2023-08-12T02:38:31;100093.81;;;16.53;100.00
29935;BME280;19905;53.370;-6.314;2023-08-12T02:41:00;100106.00;;;16.56;100.00
29935;BME280;19905;53.370;-6.314;2023-08-12T02:43:28;100113.31;;;16.53;100.00
29935;BME280;19905;53.370;-6.314;2023-08-12T02:45:59;100104.16;;;16.56;100.00
29935;BME280;19905;53.370;-6.314;2023-08-12T02:48:27;100102.66;;;16.53;100.00
29935;BME280;19905;53.370;-6.314;2023-08-12T02:50:56;100094.50;;;16.55;100.00
29935;BME280;19905;53.370;-6.314;2023-08-12T02:53:25;100088.28;;;16.63;100.00
29935;BME280;19905;53.370;-6.314;2023-08-12T02:55:53;100094.31;;;16.57;100.00
29935;BME280;19905;53.370;-6.314;2023-08-12T02:58:22;100080.47;;;16.61;100.00
29935;BME280;19905;53.370;-6.314;2023-08-12T03:00:50;100082.34;;;16.52;100.00
29935;BME280;19905;53.370;-6.314;2023-08-12T03:03:20;100078.31;;;16.65;100.00
29935;BME280;19905;53.370;-6.314;2023-08-12T03:05:50;100077.00;;;16.52;100.00
29935;BME280;19905;53.370;-6.314;2023-08-12T03:08:19;100077.19;;;16.51;100.00
29935;BME280;19905;53.370;-6.314;2023-08-12T03:10:47;100069.19;;;16.51;100.00
29935;BME280;19905;53.370;-6.314;2023-08-12T03:13:15;100071.03;;;16.50;100.00
29935;BME280;19905;53.370;-6.314;2023-08-12T03:15:44;100062.66;;;16.53;100.00
29935;BME280;19905;53.370;-6.314;2023-08-12T03:18:13;100072.19;;;16.48;100.00
29935;BME280;19905;53.370;-6.314;2023-08-12T03:20:43;100069.38;;;16.49;100.00
29935;BME280;19905;53.370;-6.314;2023-08-12T03:23:12;100074.84;;;16.48;100.00
29935;BME280;19905;53.370;-6.314;2023-08-12T03:25:40;100074.69;;;16.49;100.00
29935;BME280;19905;53.370;-6.314;2023-08-12T03:28:09;100072.38;;;16.46;100.00
29935;BME280;19905;53.370;-6.314;2023-08-12T03:30:37;100094.53;;;16.39;100.00
29935;BME280;19905;53.370;-6.314;2023-08-12T03:33:06;100053.53;;;16.40;100.00
29935;BME280;19905;53.370;-6.314;2023-08-12T03:35:35;100054.22;;;16.34;100.00
29935;BME280;19905;53.370;-6.314;2023-08-12T03:38:05;100060.06;;;16.29;100.00
29935;BME280;19905;53.370;-6.314;2023-08-12T03:40:37;100046.56;;;16.31;100.00
29935;BME280;19905;53.370;-6.314;2023-08-12T03:43:06;100052.41;;;16.26;100.00
29935;BME280;19905;53.370;-6.314;2023-08-12T03:45:39;100046.44;;;16.24;100.00
29935;BME280;19905;53.370;-6.314;2023-08-12T03:48:08;100047.13;;;16.18;100.00
29935;BME280;19905;53.370;-6.314;2023-08-12T03:50:38;100045.44;;;16.17;100.00
29935;BME280;19905;53.370;-6.314;2023-08-12T03:53:08;100040.09;;;16.17;100.00
29935;BME280;19905;53.370;-6.314;2023-08-12T03:55:37;100041.94;;;16.16;100.00
29935;BME280;19905;53.370;-6.314;2023-08-12T03:58:05;100029.78;;;16.22;100.00
29935;BME280;19905;53.370;-6.314;2023-08-12T04:00:34;100035.13;;;16.22;100.00
29935;BME280;19905;53.370;-6.314;2023-08-12T04:03:03;100029.09;;;16.28;100.00
29935;BME280;19905;53.370;-6.314;2023-08-12T04:05:32;100031.78;;;16.20;100.00
29935;BME280;19905;53.370;-6.314;2023-08-12T04:08:00;100019.13;;;16.22;100.00
29935;BME280;19905;53.370;-6.314;2023-08-12T04:10:32;100032.59;;;16.20;100.00
29935;BME280;19905;53.370;-6.314;2023-08-12T04:13:00;100019.28;;;16.20;100.00
29935;BME280;19905;53.370;-6.314;2023-08-12T04:15:29;100025.75;;;16.26;100.00
29935;BME280;19905;53.370;-6.314;2023-08-12T04:17:58;100016.94;;;16.25;100.00
29935;BME280;19905;53.370;-6.314;2023-08-12T04:20:27;100014.78;;;16.29;100.00
29935;BME280;19905;53.370;-6.314;2023-08-12T04:22:56;100003.47;;;16.27;100.00
29935;BME280;19905;53.370;-6.314;2023-08-12T04:25:25;100004.09;;;16.29;100.00
29935;BME280;19905;53.370;-6.314;2023-08-12T04:27:55;99996.59;;;16.33;100.00
29935;BME280;19905;53.370;-6.314;2023-08-12T04:30:25;100014.06;;;16.35;100.00
29935;BME280;19905;53.370;-6.314;2023-08-12T04:32:53;100006.59;;;16.31;100.00
29935;BME280;19905;53.370;-6.314;2023-08-12T04:35:22;100002.91;;;16.40;100.00
29935;BME280;19905;53.370;-6.314;2023-08-12T04:37:51;100023.91;;;16.35;100.00
29935;BME280;19905;53.370;-6.314;2023-08-12T04:40:19;100000.59;;;16.37;100.00
29935;BME280;19905;53.370;-6.314;2023-08-12T04:42:49;100011.06;;;16.38;100.00
29935;BME280;19905;53.370;-6.314;2023-08-12T04:45:20;100017.41;;;16.37;100.00
29935;BME280;19905;53.370;-6.314;2023-08-12T04:47:49;99999.41;;;16.39;100.00
29935;BME280;19905;53.370;-6.314;2023-08-12T04:50:17;100002.78;;;16.33;100.00
29935;BME280;19905;53.370;-6.314;2023-08-12T04:52:46;100003.91;;;16.39;100.00
29935;BME280;19905;53.370;-6.314;2023-08-12T04:55:15;100009.09;;;16.32;100.00
29935;BME280;19905;53.370;-6.314;2023-08-12T04:57:44;100005.09;;;16.36;100.00
29935;BME280;19905;53.370;-6.314;2023-08-12T05:00:13;100010.06;;;16.39;100.00
29935;BME280;19905;53.370;-6.314;2023-08-12T05:02:43;100008.06;;;16.41;100.00
29935;BME280;19905;53.370;-6.314;2023-08-12T05:05:13;99994.44;;;16.36;100.00
29935;BME280;19905;53.370;-6.314;2023-08-12T05:07:41;99985.44;;;16.37;100.00
29935;BME280;19905;53.370;-6.314;2023-08-12T05:10:11;100008.75;;;16.35;100.00
29935;BME280;19905;53.370;-6.314;2023-08-12T05:12:40;99988.59;;;16.41;100.00
29935;BME280;19905;53.370;-6.314;2023-08-12T05:15:09;99987.09;;;16.38;100.00
29935;BME280;19905;53.370;-6.314;2023-08-12T05:17:38;100003.56;;;16.42;100.00
29935;BME280;19905;53.370;-6.314;2023-08-12T05:20:09;99995.91;;;16.39;100.00
29935;BME280;19905;53.370;-6.314;2023-08-12T05:22:38;100002.72;;;16.49;100.00
29935;BME280;19905;53.370;-6.314;2023-08-12T05:25:07;99986.72;;;16.49;100.00
29935;BME280;19905;53.370;-6.314;2023-08-12T05:27:36;100010.06;;;16.39;100.00
29935;BME280;19905;53.370;-6.314;2023-08-12T05:30:07;100007.41;;;16.39;100.00
29935;BME280;19905;53.370;-6.314;2023-08-12T05:32:35;100010.06;;;16.39;100.00
29935;BME280;19905;53.370;-6.314;2023-08-12T05:35:05;100011.38;;;16.43;100.00
29935;BME280;19905;53.370;-6.314;2023-08-12T05:37:35;100016.59;;;16.37;100.00
29935;BME280;19905;53.370;-6.314;2023-08-12T05:40:04;100019.91;;;16.39;100.00
29935;BME280;19905;53.370;-6.314;2023-08-12T05:42:36;100014.56;;;16.39;100.00
29935;BME280;19905;53.370;-6.314;2023-08-12T05:45:05;100015.72;;;16.44;100.00
29935;BME280;19905;53.370;-6.314;2023-08-12T05:47:34;100016.91;;;16.42;100.00
29935;BME280;19905;53.370;-6.314;2023-08-12T05:50:04;100021.56;;;16.40;100.00
29935;BME280;19905;53.370;-6.314;2023-08-12T05:52:35;100011.25;;;16.45;100.00
29935;BME280;19905;53.370;-6.314;2023-08-12T05:55:04;100023.88;;;16.51;100.00
29935;BME280;19905;53.370;-6.314;2023-08-12T05:57:33;100028.56;;;16.41;100.00
29935;BME280;19905;53.370;-6.314;2023-08-12T06:00:02;100028.69;;;16.47;100.00
29935;BME280;19905;53.370;-6.314;2023-08-12T06:02:31;100029.38;;;16.49;100.00
29935;BME280;19905;53.370;-6.314;2023-08-12T06:04:59;100025.22;;;16.47;100.00
29935;BME280;19905;53.370;-6.314;2023-08-12T06:07:28;100035.38;;;16.43;100.00
29935;BME280;19905;53.370;-6.314;2023-08-12T06:09:58;100031.69;;;16.44;100.00
29935;BME280;19905;53.370;-6.314;2023-08-12T06:12:27;100024.72;;;16.43;100.00
29935;BME280;19905;53.370;-6.314;2023-08-12T06:14:55;100035.19;;;16.53;100.00
29935;BME280;19905;53.370;-6.314;2023-08-12T06:17:24;100022.66;;;16.53;100.00
29935;BME280;19905;53.370;-6.314;2023-08-12T06:19:53;100016.00;;;16.58;100.00
29935;BME280;19905;53.370;-6.314;2023-08-12T06:22:22;100031.31;;;16.64;100.00
29935;BME280;19905;53.370;-6.314;2023-08-12T06:24:50;100006.81;;;16.68;100.00
29935;BME280;19905;53.370;-6.314;2023-08-12T06:27:20;100023.66;;;16.61;100.00
29935;BME280;19905;53.370;-6.314;2023-08-12T06:29:49;100017.31;;;16.62;100.00
29935;BME280;19905;53.370;-6.314;2023-08-12T06:32:18;100016.78;;;16.66;100.00
29935;BME280;19905;53.370;-6.314;2023-08-12T06:34:47;100007.13;;;16.65;100.00
29935;BME280;19905;53.370;-6.314;2023-08-12T06:37:15;100010.94;;;16.71;100.00
29935;BME280;19905;53.370;-6.314;2023-08-12T06:39:44;100023.44;;;16.70;100.00
29935;BME280;19905;53.370;-6.314;2023-08-12T06:42:13;100016.09;;;16.81;100.00
29935;BME280;19905;53.370;-6.314;2023-08-12T06:44:44;100014.44;;;16.71;100.00
29935;BME280;19905;53.370;-6.314;2023-08-12T06:47:13;100017.94;;;16.80;100.00
29935;BME280;19905;53.370;-6.314;2023-08-12T06:49:42;100020.28;;;16.75;100.00
29935;BME280;19905;53.370;-6.314;2023-08-12T06:52:10;100025.28;;;16.70;100.00
29935;BME280;19905;53.370;-6.314;2023-08-12T06:54:39;100022.31;;;16.73;100.00
29935;BME280;19905;53.370;-6.314;2023-08-12T06:57:08;100028.97;;;16.69;100.00
29935;BME280;19905;53.370;-6.314;2023-08-12T06:59:38;100036.81;;;16.62;100.00
29935;BME280;19905;53.370;-6.314;2023-08-12T07:02:08;100024.78;;;16.66;100.00
29935;BME280;19905;53.370;-6.314;2023-08-12T07:04:37;100039.13;;;16.65;100.00
29935;BME280;19905;53.370;-6.314;2023-08-12T07:07:06;100038.34;;;16.57;100.00
29935;BME280;19905;53.370;-6.314;2023-08-12T07:09:35;100035.31;;;16.68;100.00
29935;BME280;19905;53.370;-6.314;2023-08-12T07:12:06;100031.28;;;16.72;100.00
29935;BME280;19905;53.370;-6.314;2023-08-12T07:14:35;100043.44;;;16.83;100.00
29935;BME280;19905;53.370;-6.314;2023-08-12T07:17:04;100041.34;;;17.01;100.00
29935;BME280;19905;53.370;-6.314;2023-08-12T07:19:34;100038.44;;;17.11;100.00
29935;BME280;19905;53.370;-6.314;2023-08-12T07:22:03;100018.97;;;17.33;100.00
29935;BME280;19905;53.370;-6.314;2023-08-12T07:24:32;100020.56;;;17.42;100.00
29935;BME280;19905;53.370;-6.314;2023-08-12T07:27:00;100011.19;;;17.46;100.00
29935;BME280;19905;53.370;-6.314;2023-08-12T07:29:32;100016.22;;;17.41;100.00
29935;BME280;19905;53.370;-6.314;2023-08-12T07:32:01;100017.88;;;17.42;100.00
29935;BME280;19905;53.370;-6.314;2023-08-12T07:34:29;100028.03;;;17.47;100.00
29935;BME280;19905;53.370;-6.314;2023-08-12T07:37:00;100028.81;;;17.56;100.00
29935;BME280;19905;53.370;-6.314;2023-08-12T07:39:28;100040.19;;;17.49;100.00
29935;BME280;19905;53.370;-6.314;2023-08-12T07:41:56;100024.28;;;17.56;100.00
29935;BME280;19905;53.370;-6.314;2023-08-12T07:44:25;100033.22;;;17.63;100.00
29935;BME280;19905;53.370;-6.314;2023-08-12T07:46:54;100031.41;;;17.41;100.00
29935;BME280;19905;53.370;-6.314;2023-08-12T07:49:23;100048.72;;;17.22;100.00
29935;BME280;19905;53.370;-6.314;2023-08-12T07:51:52;100045.06;;;17.23;100.00
29935;BME280;19905;53.370;-6.314;2023-08-12T07:54:23;100045.34;;;17.28;100.00
29935;BME280;19905;53.370;-6.314;2023-08-12T07:56:52;100055.41;;;17.41;100.00
29935;BME280;19905;53.370;-6.314;2023-08-12T07:59:21;100050.03;;;17.49;100.00
29935;BME280;19905;53.370;-6.314;2023-08-12T08:01:50;100057.50;;;17.53;100.00
29935;BME280;19905;53.370;-6.314;2023-08-12T08:04:19;100052.06;;;17.47;100.00
29935;BME280;19905;53.370;-6.314;2023-08-12T08:06:48;100049.19;;;17.48;100.00
29935;BME280;19905;53.370;-6.314;2023-08-12T08:09:17;100054.31;;;17.58;100.00
29935;BME280;19905;53.370;-6.314;2023-08-12T08:11:48;100055.91;;;17.67;100.00
29935;BME280;19905;53.370;-6.314;2023-08-12T08:14:17;100062.59;;;17.63;100.00
29935;BME280;19905;53.370;-6.314;2023-08-12T08:16:45;100114.34;;;17.08;100.00
29935;BME280;19905;53.370;-6.314;2023-08-12T08:19:14;100139.69;;;16.40;100.00
29935;BME280;19905;53.370;-6.314;2023-08-12T08:21:45;100175.69;;;15.95;100.00
29935;BME280;19905;53.370;-6.314;2023-08-12T08:24:14;100157.31;;;15.68;100.00
29935;BME280;19905;53.370;-6.314;2023-08-12T08:26:42;100163.00;;;15.73;100.00
29935;BME280;19905;53.370;-6.314;2023-08-12T08:29:14;100161.69;;;15.85;100.00
29935;BME280;19905;53.370;-6.314;2023-08-12T08:31:42;100170.97;;;15.89;100.00
29935;BME280;19905;53.370;-6.314;2023-08-12T08:34:11;100156.34;;;15.93;100.00
29935;BME280;19905;53.370;-6.314;2023-08-12T08:36:39;100142.19;;;15.93;100.00
29935;BME280;19905;53.370;-6.314;2023-08-12T08:39:08;100136.53;;;15.96;100.00
29935;BME280;19905;53.370;-6.314;2023-08-12T08:41:38;100134.06;;;15.94;100.00
29935;BME280;19905;53.370;-6.314;2023-08-12T08:44:08;100131.03;;;15.89;100.00
29935;BME280;19905;53.370;-6.314;2023-08-12T08:46:39;100126.22;;;16.01;100.00
29935;BME280;19905;53.370;-6.314;2023-08-12T08:49:09;100132.72;;;16.07;100.00
29935;BME280;19905;53.370;-6.314;2023-08-12T08:51:39;100130.38;;;16.12;100.00
29935;BME280;19905;53.370;-6.314;2023-08-12T08:54:07;100127.38;;;16.07;100.00
29935;BME280;19905;53.370;-6.314;2023-08-12T08:56:37;100138.56;;;16.26;100.00
29935;BME280;19905;53.370;-6.314;2023-08-12T08:59:15;100141.50;;;16.40;100.00
29935;BME280;19905;53.370;-6.314;2023-08-12T09:01:46;100127.31;;;16.64;100.00
29935;BME280;19905;53.370;-6.314;2023-08-12T09:04:15;100118.94;;;16.83;100.00
29935;BME280;19905;53.370;-6.314;2023-08-12T09:06:45;100121.41;;;16.93;100.00
29935;BME280;19905;53.370;-6.314;2023-08-12T09:09:16;100107.38;;;17.30;100.00
29935;BME280;19905;53.370;-6.314;2023-08-12T09:11:47;100092.38;;;17.29;100.00
29935;BME280;19905;53.370;-6.314;2023-08-12T09:14:17;100094.22;;;17.28;100.00
29935;BME280;19905;53.370;-6.314;2023-08-12T09:16:47;100094.16;;;17.14;100.00
29935;BME280;19905;53.370;-6.314;2023-08-12T09:19:16;100094.69;;;17.09;100.00
29935;BME280;19905;53.370;-6.314;2023-08-12T09:21:51;100090.91;;;16.95;100.00
29935;BME280;19905;53.370;-6.314;2023-08-12T09:24:24;100111.44;;;16.87;100.00
29935;BME280;19905;53.370;-6.314;2023-08-12T09:26:54;100101.75;;;16.86;100.00
29935;BME280;19905;53.370;-6.314;2023-08-12T09:29:27;100106.09;;;16.87;100.00
29935;BME280;19905;53.370;-6.314;2023-08-12T09:32:18;100106.69;;;17.05;100.00
29935;BME280;19905;53.370;-6.314;2023-08-12T09:34:55;100088.72;;;17.30;100.00
29935;BME280;19905;53.370;-6.314;2023-08-12T09:37:24;100088.84;;;17.37;100.00
29935;BME280;19905;53.370;-6.314;2023-08-12T09:39:57;100094.66;;;17.63;100.00
29935;BME280;19905;53.370;-6.314;2023-08-12T09:42:27;100086.38;;;17.81;100.00
29935;BME280;19905;53.370;-6.314;2023-08-12T09:44:56;100087.59;;;17.78;100.00
29935;BME280;19905;53.370;-6.314;2023-08-12T09:47:28;100119.22;;;17.90;100.00
29935;BME280;19905;53.370;-6.314;2023-08-12T09:49:57;100089.59;;;17.76;100.00
29935;BME280;19905;53.370;-6.314;2023-08-12T09:52:27;100067.88;;;17.80;100.00
29935;BME280;19905;53.370;-6.314;2023-08-12T09:54:56;100085.34;;;17.82;100.00
29935;BME280;19905;53.370;-6.314;2023-08-12T09:57:28;100083.00;;;17.87;100.00
29935;BME280;19905;53.370;-6.314;2023-08-12T09:59:59;100091.97;;;18.09;100.00
29935;BME280;19905;53.370;-6.314;2023-08-12T10:02:31;100085.31;;;18.28;100.00
29935;BME280;19905;53.370;-6.314;2023-08-12T10:05:03;100080.78;;;18.28;100.00
29935;BME280;19905;53.370;-6.314;2023-08-12T10:07:32;100085.94;;;18.30;100.00
29935;BME280;19905;53.370;-6.314;2023-08-12T10:10:02;100072.84;;;18.35;100.00
29935;BME280;19905;53.370;-6.314;2023-08-12T10:12:34;100079.50;;;18.24;100.00
29935;BME280;19905;53.370;-6.314;2023-08-12T10:15:05;100084.75;;;18.33;100.00
29935;BME280;19905;53.370;-6.314;2023-08-12T10:17:37;100083.56;;;18.35;100.00
29935;BME280;19905;53.370;-6.314;2023-08-12T10:20:13;100081.22;;;18.17;100.00
29935;BME280;19905;53.370;-6.314;2023-08-12T10:22:42;100089.53;;;18.22;100.00
29935;BME280;19905;53.370;-6.314;2023-08-12T10:25:13;100083.56;;;18.35;100.00
29935;BME280;19905;53.370;-6.314;2023-08-12T10:27:45;100091.56;;;18.35;100.00
29935;BME280;19905;53.370;-6.314;2023-08-12T10:30:14;100083.88;;;18.17;100.00
29935;BME280;19905;53.370;-6.314;2023-08-12T10:32:45;100090.25;;;18.16;100.00
29935;BME280;19905;53.370;-6.314;2023-08-12T10:35:15;100092.22;;;17.99;100.00
29935;BME280;19905;53.370;-6.314;2023-08-12T10:37:48;100090.47;;;17.92;100.00
29935;BME280;19905;53.370;-6.314;2023-08-12T10:40:20;100098.50;;;17.92;100.00
29935;BME280;19905;53.370;-6.314;2023-08-12T10:42:50;100074.53;;;17.98;100.00
29935;BME280;19905;53.370;-6.314;2023-08-12T10:45:19;100096.66;;;17.92;100.00
29935;BME280;19905;53.370;-6.314;2023-08-12T10:48:09;100102.63;;;17.94;100.00
29935;BME280;19905;53.370;-6.314;2023-08-12T10:50:43;100107.50;;;17.91;100.00
29935;BME280;19905;53.370;-6.314;2023-08-12T10:53:24;100112.75;;;17.84;100.00
29935;BME280;19905;53.370;-6.314;2023-08-12T10:56:03;100109.78;;;17.79;100.00
29935;BME280;19905;53.370;-6.314;2023-08-12T10:58:35;100126.97;;;17.76;100.00
29935;BME280;19905;53.370;-6.314;2023-08-12T11:01:13;100113.66;;;17.68;100.00
29935;BME280;19905;53.370;-6.314;2023-08-12T11:03:48;100107.97;;;17.71;100.00
29935;BME280;19905;53.370;-6.314;2023-08-12T11:06:19;100108.31;;;17.91;100.00
29935;BME280;19905;53.370;-6.314;2023-08-12T11:08:52;100093.88;;;18.00;100.00
29935;BME280;19905;53.370;-6.314;2023-08-12T11:11:22;100114.16;;;17.95;100.00
29935;BME280;19905;53.370;-6.314;2023-08-12T11:13:56;100116.88;;;17.87;100.00
29935;BME280;19905;53.370;-6.314;2023-08-12T11:16:34;100123.63;;;17.83;100.00
29935;BME280;19905;53.370;-6.314;2023-08-12T11:19:05;100126.44;;;17.81;100.00
29935;BME280;19905;53.370;-6.314;2023-08-12T11:21:36;100127.75;;;17.85;100.00
29935;BME280;19905;53.370;-6.314;2023-08-12T11:24:05;100135.72;;;17.93;100.00
29935;BME280;19905;53.370;-6.314;2023-08-12T11:26:34;100131.53;;;18.14;100.00
29935;BME280;19905;53.370;-6.314;2023-08-12T11:29:09;100128.84;;;18.14;100.00
29935;BME280;19905;53.370;-6.314;2023-08-12T11:31:37;100111.22;;;18.42;100.00
29935;BME280;19905;53.370;-6.314;2023-08-12T11:34:10;100110.41;;;18.57;100.00
29935;BME280;19905;53.370;-6.314;2023-08-12T11:36:39;100118.53;;;18.63;100.00
29935;BME280;19905;53.370;-6.314;2023-08-12T11:39:09;100112.53;;;18.46;100.00
29935;BME280;19905;53.370;-6.314;2023-08-12T11:41:38;100118.03;;;18.45;100.00
29935;BME280;19905;53.370;-6.314;2023-08-12T11:44:11;100114.53;;;18.44;100.00
29935;BME280;19905;53.370;-6.314;2023-08-12T11:46:41;100100.06;;;18.39;100.00
29935;BME280;19905;53.370;-6.314;2023-08-12T11:49:12;100107.41;;;18.37;100.00
29935;BME280;19905;53.370;-6.314;2023-08-12T11:51:42;100131.59;;;18.28;100.00
29935;BME280;19905;53.370;-6.314;2023-08-12T11:54:11;100097.88;;;18.87;100.00
29935;BME280;19905;53.370;-6.314;2023-08-12T11:56:40;100087.81;;;19.40;100.00
29935;BME280;19905;53.370;-6.314;2023-08-12T11:59:09;100089.41;;;19.55;100.00
29935;BME280;19905;53.370;-6.314;2023-08-12T12:01:39;100087.34;;;19.36;100.00
29935;BME280;19905;53.370;-6.314;2023-08-12T12:04:14;100081.06;;;19.65;100.00
29935;BME280;19905;53.370;-6.314;2023-08-12T12:06:44;100080.59;;;19.76;100.00
29935;BME280;19905;53.370;-6.314;2023-08-12T12:09:13;100071.66;;;19.97;100.00
29935;BME280;19905;53.370;-6.314;2023-08-12T12:11:45;100079.47;;;19.92;100.00
29935;BME280;19905;53.370;-6.314;2023-08-12T12:14:14;100072.25;;;19.93;100.00
29935;BME280;19905;53.370;-6.314;2023-08-12T12:16:44;100085.28;;;19.74;100.00
29935;BME280;19905;53.370;-6.314;2023-08-12T12:19:17;100081.38;;;19.34;100.00
29935;BME280;19905;53.370;-6.314;2023-08-12T12:21:48;100110.78;;;19.13;100.00
29935;BME280;19905;53.370;-6.314;2023-08-12T12:24:20;100129.03;;;18.50;100.00
29935;BME280;19905;53.370;-6.314;2023-08-12T12:26:49;100160.03;;;18.21;100.00
29935;BME280;19905;53.370;-6.314;2023-08-12T12:29:17;100164.84;;;18.26;100.00
29935;BME280;19905;53.370;-6.314;2023-08-12T12:31:47;100148.06;;;18.32;100.00
29935;BME280;19905;53.370;-6.314;2023-08-12T12:34:17;100151.25;;;18.50;100.00
29935;BME280;19905;53.370;-6.314;2023-08-12T12:36:46;100147.25;;;18.84;100.00
29935;BME280;19905;53.370;-6.314;2023-08-12T12:39:16;100141.16;;;19.20;100.00
29935;BME280;19905;53.370;-6.314;2023-08-12T12:41:44;100118.72;;;19.42;100.00
29935;BME280;19905;53.370;-6.314;2023-08-12T12:44:15;100112.41;;;19.86;100.00